Time;durP1;ratioP1;P1;durP2;ratioP2;P2;SDS_P1;SDS_P2;PMS_P1;PMS_P2;Temp;Humidity;BMP_temperature;BMP_pressure;BME280_temperature;BME280_humidity;BME280_pressure;Samples;Min_cycle;Max_cycle;Signal;HPM_P1;HPM_P2
2022/08/30 04:32:02;;;;;;;;;2.50;2.00;;;;;-147.14;100.00;58812.66;5266589;23;8878;-70
2022/08/30 04:34:27;;;;;;;;;2.00;2.00;;;;;-147.14;100.00;58812.66;5055412;28;8997;-69
2022/08/30 04:36:53;;;;;;;;;1.67;1.67;;;;;-147.14;100.00;58812.66;5039881;28;35905;-70
2022/08/30 04:39:18;;;;;;;;;1.67;1.67;;;;;-147.14;100.00;58812.66;5040976;28;33663;-67
2022/08/30 04:41:44;;;;;;;;;1.67;1.67;;;;;-147.14;100.00;58812.66;5040361;28;8824;-67
2022/08/30 04:44:09;;;;;;;;;4.50;3.00;;;;;-147.14;100.00;58812.66;5043896;28;8828;-67
2022/08/30 04:46:35;;;;;;;;;2.00;2.00;;;;;-147.14;100.00;58812.66;5046984;28;9654;-68
2022/08/30 04:49:01;;;;;;;;;4.50;2.50;;;;;-147.14;100.00;58812.66;5044105;28;8826;-68
2022/08/30 04:51:27;;;;;;;;;3.00;2.00;;;;;-147.14;100.00;58812.66;5041626;28;8823;-69
2022/08/30 04:53:52;;;;;;;;;2.00;2.00;;;;;-147.14;100.00;58812.66;5039143;28;24898;-68
2022/08/30 04:56:21;;;;;;;;;2.00;2.00;;;;;-147.14;100.00;58812.66;5039202;28;35162;-68
2022/08/30 04:58:48;;;;;;;;;2.75;1.00;;;;;-147.14;100.00;58812.66;5039730;28;8797;-68
2022/08/30 05:01:19;;;;;;;;;2.75;2.75;;;;;-147.14;100.00;58812.66;5040238;28;8845;-68
2022/08/30 05:03:46;;;;;;;;;6.25;3.00;;;;;-147.14;100.00;58812.66;5043369;28;9713;-68
2022/08/30 05:06:11;;;;;;;;;2.00;2.00;;;;;-147.14;100.00;58812.66;5057178;28;9697;-68
2022/08/30 05:08:37;;;;;;;;;2.00;2.00;;;;;-147.14;100.00;58812.66;5053668;28;8825;-67
2022/08/30 05:11:04;;;;;;;;;2.00;2.00;;;;;-147.14;100.00;58812.66;5045567;28;37204;-68
2022/08/30 05:13:30;;;;;;;;;4.50;4.00;;;;;-147.14;100.00;58812.66;5043526;28;8803;-69
2022/08/30 05:15:55;;;;;;;;;4.00;2.33;;;;;-147.14;100.00;58812.66;5050121;28;8847;-68
2022/08/30 05:18:21;;;;;;;;;2.00;2.00;;;;;-147.14;100.00;58812.66;5041391;28;8905;-69
2022/08/30 05:20:46;;;;;;;;;2.67;2.67;;;;;-147.14;100.00;58812.66;5040500;28;8843;-68
2022/08/30 05:23:11;;;;;;;;;4.00;4.00;;;;;-147.14;100.00;58812.66;5036206;28;32452;-69
2022/08/30 05:25:38;;;;;;;;;3.67;3.00;;;;;-147.14;100.00;58812.66;5041827;28;8847;-68
2022/08/30 05:28:04;;;;;;;;;3.00;3.00;;;;;-147.14;100.00;58812.66;5042962;28;8885;-68
2022/08/30 05:30:32;;;;;;;;;2.33;1.33;;;;;-147.14;100.00;58812.66;5038700;28;8819;-68
2022/08/30 05:32:57;;;;;;;;;3.75;2.75;;;;;-147.14;100.00;58812.66;5037664;28;10191;-68
2022/08/30 05:35:23;;;;;;;;;1.67;1.67;;;;;-147.14;100.00;58812.66;5050274;28;32441;-68
2022/08/30 05:37:49;;;;;;;;;6.00;2.67;;;;;-147.14;100.00;58812.66;5036196;28;31384;-68
2022/08/30 05:40:16;;;;;;;;;2.25;2.25;;;;;-147.14;100.00;58812.66;5036154;28;9729;-68
2022/08/30 05:42:42;;;;;;;;;3.50;2.50;;;;;-147.14;100.00;58812.66;5036146;28;8886;-68
2022/08/30 05:45:08;;;;;;;;;2.00;2.00;;;;;-147.14;100.00;58812.66;5036204;28;8877;-68
2022/08/30 05:47:34;;;;;;;;;3.25;3.00;;;;;-147.14;100.00;58812.66;5043032;28;8821;-69
2022/08/30 05:49:59;;;;;;;;;3.33;3.33;;;;;-147.14;100.00;58812.66;5040167;28;8833;-69
2022/08/30 05:52:25;;;;;;;;;1.33;1.33;;;;;-147.14;100.00;58812.66;5036328;28;8807;-69
2022/08/30 05:54:52;;;;;;;;;2.67;2.67;;;;;-147.14;100.00;58812.66;5039242;28;29936;-69
2022/08/30 05:57:18;;;;;;;;;2.50;2.50;;;;;-147.14;100.00;58812.66;5036961;28;8799;-68
2022/08/30 05:59:44;;;;;;;;;3.25;3.25;;;;;-147.14;100.00;58812.66;5035804;28;8831;-69
2022/08/30 06:02:09;;;;;;;;;3.00;3.00;;;;;-147.14;100.00;58812.66;5035076;28;8871;-68
2022/08/30 06:04:35;;;;;;;;;3.00;3.00;;;;;-147.14;100.00;58812.66;5038411;28;23612;-69
2022/08/30 06:07:01;;;;;;;;;2.75;2.75;;;;;-147.14;100.00;58812.66;5037518;28;8821;-69
2022/08/30 06:09:26;;;;;;;;;2.00;2.00;;;;;-147.14;100.00;58812.66;5047452;28;8815;-69
2022/08/30 06:11:52;;;;;;;;;4.00;3.00;;;;;-147.14;100.00;58812.66;5034643;28;31933;-69
2022/08/30 06:14:17;;;;;;;;;2.00;2.00;;;;;-147.14;100.00;58812.66;5043993;28;8911;-70
2022/08/30 06:16:45;;;;;;;;;3.00;2.00;;;;;-147.14;100.00;58812.66;5038635;28;15562;-69
2022/08/30 06:19:11;;;;;;;;;3.00;3.00;;;;;-147.14;100.00;58812.66;5039066;28;8804;-69
2022/08/30 06:21:38;;;;;;;;;2.00;2.00;;;;;-147.14;100.00;58812.66;5037615;28;9566;-69
2022/08/30 06:24:04;;;;;;;;;3.25;3.00;;;;;-147.14;100.00;58812.66;5035650;28;8739;-69
2022/08/30 06:26:30;;;;;;;;;4.25;4.25;;;;;-147.14;100.00;58812.66;5035489;28;8780;-69
2022/08/30 06:28:56;;;;;;;;;3.00;3.00;;;;;-147.14;100.00;58812.66;5036689;28;8830;-65
2022/08/30 06:31:24;;;;;;;;;3.25;2.00;;;;;-147.14;100.00;58812.66;5041992;28;8800;-65
2022/08/30 06:33:50;;;;;;;;;3.75;3.75;;;;;-147.14;100.00;58812.66;5043407;28;8807;-64
2022/08/30 06:36:18;;;;;;;;;4.00;3.00;;;;;-147.14;100.00;58812.66;5035035;28;8803;-64
2022/08/30 06:38:44;;;;;;;;;2.00;2.00;;;;;-147.14;100.00;58812.66;5040899;28;8820;-68
2022/08/30 06:41:15;;;;;;;;;3.75;3.75;;;;;-147.14;100.00;58812.66;5035954;28;8819;-67
2022/08/30 06:43:41;;;;;;;;;2.00;1.50;;;;;-147.14;100.00;58812.66;5044961;28;8811;-66
2022/08/30 06:46:10;;;;;;;;;2.00;2.00;;;;;-147.14;100.00;58812.66;5034222;28;8934;-65
2022/08/30 06:48:36;;;;;;;;;2.50;2.50;;;;;-147.14;100.00;58812.66;5048078;28;8834;-64
2022/08/30 06:51:01;;;;;;;;;3.33;3.33;;;;;-147.14;100.00;58812.66;5038833;28;27425;-67
2022/08/30 06:53:28;;;;;;;;;2.00;2.00;;;;;-147.14;100.00;58812.66;5037215;28;8826;-66
2022/08/30 06:56:00;;;;;;;;;4.25;3.50;;;;;-147.14;100.00;58812.66;5036373;28;8846;-66
2022/08/30 06:58:26;;;;;;;;;3.00;3.00;;;;;-147.14;100.00;58812.66;5043932;28;9760;-66
2022/08/30 07:00:52;;;;;;;;;4.00;4.00;;;;;-147.14;100.00;58812.66;5043002;28;8772;-74
2022/08/30 07:03:17;;;;;;;;;4.00;2.00;;;;;-147.14;100.00;58812.66;5043208;28;8807;-74
2022/08/30 07:05:43;;;;;;;;;3.00;3.00;;;;;-147.14;100.00;58812.66;5035162;28;8842;-74
2022/08/30 07:08:08;;;;;;;;;3.33;2.00;;;;;-147.14;100.00;58812.66;5036120;28;32439;-74
2022/08/30 07:10:37;;;;;;;;;4.00;2.33;;;;;-147.14;100.00;58812.66;5035434;28;36186;-73
2022/08/30 07:13:02;;;;;;;;;1.75;1.75;;;;;-147.14;100.00;58812.66;5036739;28;8744;-73
2022/08/30 07:15:28;;;;;;;;;4.00;4.00;;;;;-147.14;100.00;58812.66;5038667;28;21717;-75
2022/08/30 07:20:37;;;;;;;;;3.25;3.00;;;;;-147.14;100.00;58812.66;5044274;28;8823;-72
2022/08/30 07:23:02;;;;;;;;;3.00;3.00;;;;;-147.14;100.00;58812.66;5035990;28;8904;-71
2022/08/30 07:25:28;;;;;;;;;1.00;1.00;;;;;-147.14;100.00;58812.66;5045449;28;19845;-72
2022/08/30 07:27:53;;;;;;;;;5.33;4.00;;;;;-147.14;100.00;58812.66;5044342;28;29328;-64
2022/08/30 07:30:19;;;;;;;;;2.00;2.00;;;;;-147.14;100.00;58812.66;5037738;28;9695;-64
2022/08/30 07:32:44;;;;;;;;;2.00;2.00;;;;;-147.14;100.00;58812.66;5043806;28;36336;-65
2022/08/30 07:35:09;;;;;;;;;4.33;4.00;;;;;-147.14;100.00;58812.66;5036794;28;31655;-65
2022/08/30 07:37:35;;;;;;;;;1.33;1.33;;;;;-147.14;100.00;58812.66;5033176;28;8820;-65
2022/08/30 07:40:01;;;;;;;;;3.00;3.00;;;;;-147.14;100.00;58812.66;5036094;28;28637;-65
2022/08/30 07:42:26;;;;;;;;;3.50;2.50;;;;;-147.14;100.00;58812.66;5033544;28;8846;-65
2022/08/30 07:44:52;;;;;;;;;5.00;4.00;;;;;-147.14;100.00;58812.66;5033471;28;8847;-65
2022/08/30 07:47:17;;;;;;;;;1.25;1.00;;;;;-147.14;100.00;58812.66;5035324;28;31878;-65
2022/08/30 07:49:42;;;;;;;;;3.33;1.33;;;;;-147.14;100.00;58812.66;5037472;28;8823;-65
2022/08/30 07:52:08;;;;;;;;;3.33;3.33;;;;;-147.14;100.00;58812.66;5035417;28;31236;-64
2022/08/30 07:54:33;;;;;;;;;3.00;2.00;;;;;-147.14;100.00;58812.66;5048407;28;8809;-64
2022/08/30 07:56:58;;;;;;;;;3.67;3.33;;;;;-147.14;100.00;58812.66;5046146;28;8836;-64
2022/08/30 07:59:24;;;;;;;;;4.00;4.00;;;;;-147.14;100.00;58812.66;5035697;28;9135;-65
2022/08/30 08:01:49;;;;;;;;;2.25;2.00;;;;;-147.14;100.00;58812.66;5047902;28;8835;-65
2022/08/30 08:04:15;;;;;;;;;3.00;3.00;;;;;-147.14;100.00;58812.66;5043900;28;15930;-72
2022/08/30 08:06:40;;;;;;;;;4.00;4.00;;;;;-147.14;100.00;58812.66;5042649;28;34415;-72
2022/08/30 08:09:07;;;;;;;;;3.00;3.00;;;;;-147.14;100.00;58812.66;5038622;28;8797;-72
2022/08/30 08:11:33;;;;;;;;;3.00;3.00;;;;;-147.14;100.00;58812.66;5038985;28;8803;-72
2022/08/30 08:13:59;;;;;;;;;2.75;2.75;;;;;-147.14;100.00;58812.66;5042444;28;8805;-72
2022/08/30 08:16:29;;;;;;;;;3.00;3.00;;;;;-147.14;100.00;58812.66;5036819;28;8823;-72
2022/08/30 08:18:54;;;;;;;;;4.00;4.00;;;;;-147.14;100.00;58812.66;5042273;28;8876;-71
2022/08/30 08:21:20;;;;;;;;;4.33;2.33;;;;;-147.14;100.00;58812.66;5035585;28;8910;-71
2022/08/30 08:23:46;;;;;;;;;1.50;1.50;;;;;-147.14;100.00;58812.66;5049652;28;9776;-72
2022/08/30 08:26:11;;;;;;;;;5.00;5.00;;;;;-147.14;100.00;58812.66;5040714;28;8791;-71
2022/08/30 08:28:36;;;;;;;;;4.00;1.67;;;;;-147.14;100.00;58812.66;5046143;28;23944;-72
2022/08/30 08:31:02;;;;;;;;;5.67;3.00;;;;;-147.14;100.00;58812.66;5033843;28;36266;-72
2022/08/30 08:33:27;;;;;;;;;4.00;3.67;;;;;-147.14;100.00;58812.66;5040044;28;24522;-71
2022/08/30 08:35:53;;;;;;;;;1.00;1.00;;;;;-147.14;100.00;58812.66;5044959;28;8804;-71
2022/08/30 08:38:18;;;;;;;;;4.00;2.00;;;;;-147.14;100.00;58812.66;5034618;28;23743;-72
2022/08/30 08:41:04;;;;;;;;;6.00;2.33;;;;;-147.14;100.00;58812.66;5044914;28;15711;-72
2022/08/30 08:43:33;;;;;;;;;1.00;1.00;;;;;-147.14;100.00;58812.66;5038126;28;8779;-72
2022/08/30 08:46:17;;;;;;;;;2.00;2.00;;;;;-147.14;100.00;58812.66;5038238;28;9720;-71
2022/08/30 08:48:48;;;;;;;;;2.25;2.25;;;;;-147.14;100.00;58812.66;5037739;28;8923;-72
2022/08/30 08:54:38;;;;;;;;;2.50;1.50;;;;;-147.14;100.00;58812.66;5004987;28;9786;-72
2022/08/30 08:57:03;;;;;;;;;4.00;3.25;;;;;-147.14;100.00;58812.66;5038962;28;8993;-71
2022/08/30 08:59:29;;;;;;;;;3.00;3.00;;;;;-147.14;100.00;58812.66;5052896;28;8939;-71
2022/08/30 09:01:57;;;;;;;;;5.00;5.00;;;;;-147.14;100.00;58812.66;5039646;28;21929;-72
2022/08/30 09:04:26;;;;;;;;;3.00;2.00;;;;;-147.14;100.00;58812.66;5048488;28;8800;-72
2022/08/30 09:07:02;;;;;;;;;3.00;3.00;;;;;-147.14;100.00;58812.66;5033072;28;8832;-71
2022/08/30 09:09:31;;;;;;;;;2.00;2.00;;;;;-147.14;100.00;58812.66;5049045;28;8824;-71
2022/08/30 09:11:56;;;;;;;;;2.00;2.00;;;;;-147.14;100.00;58812.66;5047650;28;8804;-71
2022/08/30 09:14:25;;;;;;;;;5.67;4.00;;;;;-147.14;100.00;58812.66;5046916;28;31690;-72
2022/08/30 09:16:52;;;;;;;;;4.00;4.00;;;;;-147.14;100.00;58812.66;5050282;28;8895;-70
2022/08/30 09:19:39;;;;;;;;;4.00;4.00;;;;;-147.14;100.00;58812.66;5040347;28;8843;-71
2022/08/30 09:22:13;;;;;;;;;2.75;2.75;;;;;-147.14;100.00;58812.66;5032337;28;8821;-71
2022/08/30 09:24:42;;;;;;;;;4.20;2.80;;;;;-147.14;100.00;58812.66;5043580;28;8819;-72
2022/08/30 09:27:21;;;;;;;;;2.40;2.40;;;;;-147.14;100.00;58812.66;5046483;28;8812;-71
2022/08/30 09:30:05;;;;;;;;;4.00;4.00;;;;;-147.14;100.00;58812.66;5041160;28;8792;-72
2022/08/30 09:32:35;;;;;;;;;2.20;2.20;;;;;-147.14;100.00;58812.66;5040460;28;9004;-71
2022/08/30 09:35:00;;;;;;;;;5.75;4.00;;;;;-147.14;100.00;58812.66;5040692;28;8815;-71
2022/08/30 09:37:34;;;;;;;;;4.00;4.00;;;;;-147.14;100.00;58812.66;5051045;28;8824;-71
2022/08/30 09:40:00;;;;;;;;;3.20;3.20;;;;;-147.14;100.00;58812.66;5051823;28;9740;-71
2022/08/30 09:42:28;;;;;;;;;2.75;2.75;;;;;-147.14;100.00;58812.66;5042571;28;8878;-71
2022/08/30 09:47:50;;;;;;;;;3.20;3.20;;;;;-147.14;100.00;58812.66;5031359;28;8787;-73
2022/08/30 09:50:21;;;;;;;;;5.33;3.67;;;;;-147.14;100.00;58812.66;5041483;28;31815;-70
2022/08/30 09:53:17;;;;;;;;;2.75;2.75;;;;;-147.14;100.00;58812.66;5035757;28;8815;-72
2022/08/30 09:55:58;;;;;;;;;2.00;2.00;;;;;-147.14;100.00;58812.66;5038385;28;8820;-71
2022/08/30 09:58:42;;;;;;;;;4.75;2.00;;;;;-147.14;100.00;58812.66;5050271;28;8804;-72
2022/08/30 10:01:14;;;;;;;;;4.20;3.20;;;;;-147.14;100.00;58812.66;5037915;28;8827;-72
2022/08/30 10:03:46;;;;;;;;;2.40;2.40;;;;;-147.14;100.00;58812.66;5037348;28;8793;-72
2022/08/30 10:06:24;;;;;;;;;2.00;2.00;;;;;-147.14;100.00;58812.66;5043942;28;8997;-73
2022/08/30 10:09:11;;;;;;;;;1.75;1.75;;;;;-147.14;100.00;58812.66;5045065;28;8823;-72
2022/08/30 10:11:58;;;;;;;;;4.00;4.00;;;;;-147.14;100.00;58812.66;5039807;28;8811;-71
2022/08/30 10:14:35;;;;;;;;;5.25;4.50;;;;;-147.14;100.00;58812.66;5036165;28;8811;-71
2022/08/30 10:17:11;;;;;;;;;5.75;4.25;;;;;-147.14;100.00;58812.66;5035416;28;8834;-71
2022/08/30 10:19:57;;;;;;;;;4.20;4.20;;;;;-147.14;100.00;58812.66;5044574;28;8833;-72
2022/08/30 10:22:53;;;;;;;;;2.20;2.20;;;;;-147.14;100.00;58812.66;5040247;28;8800;-71
2022/08/30 10:25:29;;;;;;;;;5.40;3.60;;;;;-147.14;100.00;58812.66;5034783;28;8838;-71
2022/08/30 10:27:59;;;;;;;;;4.40;3.00;;;;;-147.14;100.00;58812.66;5043318;28;8791;-71
2022/08/30 10:30:26;;;;;;;;;3.75;3.25;;;;;-147.14;100.00;58812.66;5040518;28;8831;-72
2022/08/30 10:33:05;;;;;;;;;2.00;2.00;;;;;-147.14;100.00;58812.66;5045326;28;8839;-71
2022/08/30 10:35:46;;;;;;;;;2.50;2.50;;;;;-147.14;100.00;58812.66;5043044;28;8814;-71
2022/08/30 10:38:25;;;;;;;;;3.60;2.80;;;;;-147.14;100.00;58812.66;5035202;28;8792;-71
2022/08/30 10:41:25;;;;;;;;;2.80;2.80;;;;;-147.14;100.00;58812.66;5033383;28;9773;-72
2022/08/30 10:44:25;;;;;;;;;3.25;3.25;;;;;-147.14;100.00;58812.66;4999035;28;8799;-71
2022/08/30 10:47:03;;;;;;;;;2.60;2.60;;;;;-147.14;100.00;58812.66;5048638;28;8780;-71
2022/08/30 10:49:35;;;;;;;;;3.80;2.00;;;;;-147.14;100.00;58812.66;5036754;28;8728;-72
2022/08/30 10:52:34;;;;;;;;;2.80;2.80;;;;;-147.14;100.00;58812.66;5040539;28;8749;-71
2022/08/30 10:55:17;;;;;;;;;2.00;2.00;;;;;-147.14;100.00;58812.66;5019175;28;8778;-72
2022/08/30 10:57:44;;;;;;;;;5.00;5.00;;;;;-147.14;100.00;58812.66;5016998;28;8815;-71
2022/08/30 11:00:13;;;;;;;;;4.25;3.75;;;;;-147.14;100.00;58812.66;5055667;28;8861;-72
2022/08/30 11:03:14;;;;;;;;;4.00;4.00;;;;;-147.14;100.00;58812.66;5044420;28;8802;-70
2022/08/30 11:06:08;;;;;;;;;4.25;4.25;;;;;-147.14;100.00;58812.66;5042440;28;8796;-72
2022/08/30 11:09:01;;;;;;;;;4.00;4.00;;;;;-147.14;100.00;58812.66;5036573;28;8805;-71
2022/08/30 11:11:29;;;;;;;;;3.20;3.20;;;;;-147.14;100.00;58812.66;5047537;28;8809;-70
2022/08/30 11:13:55;;;;;;;;;4.50;4.00;;;;;-147.14;100.00;58812.66;5035580;28;8792;-73
2022/08/30 11:16:39;;;;;;;;;3.25;3.25;;;;;-147.14;100.00;58812.66;5044263;28;8811;-72
2022/08/30 11:19:33;;;;;;;;;3.00;3.00;;;;;-147.14;100.00;58812.66;5041168;28;8910;-72
2022/08/30 11:22:20;;;;;;;;;4.75;4.25;;;;;-147.14;100.00;58812.66;5035598;28;8807;-72
2022/08/30 11:25:10;;;;;;;;;5.00;5.00;;;;;-147.14;100.00;58812.66;5037875;28;8847;-71
2022/08/30 11:27:44;;;;;;;;;5.00;4.00;;;;;-147.14;100.00;58812.66;5020350;28;8804;-72
2022/08/30 11:30:25;;;;;;;;;3.80;3.80;;;;;-147.14;100.00;58812.66;5038118;28;9701;-71
2022/08/30 11:33:11;;;;;;;;;3.75;3.00;;;;;-147.14;100.00;58812.66;5039126;28;8878;-71
2022/08/30 11:35:48;;;;;;;;;2.40;1.40;;;;;-147.14;100.00;58812.66;5026440;28;8811;-72
2022/08/30 11:38:27;;;;;;;;;8.60;4.20;;;;;-147.14;100.00;58812.66;5038090;28;8821;-72
2022/08/30 11:40:55;;;;;;;;;1.80;1.80;;;;;-147.14;100.00;58812.66;5037266;28;8835;-71
2022/08/30 11:43:40;;;;;;;;;4.80;4.80;;;;;-147.14;100.00;58812.66;5047802;28;8752;-72
2022/08/30 11:46:13;;;;;;;;;2.40;2.40;;;;;-147.14;100.00;58812.66;5026893;28;8882;-71
2022/08/30 11:48:43;;;;;;;;;2.60;2.60;;;;;-147.14;100.00;58812.66;5043003;28;8823;-71
2022/08/30 11:51:18;;;;;;;;;2.00;2.00;;;;;-147.14;100.00;58812.66;5037739;28;8788;-72
2022/08/30 11:53:52;;;;;;;;;7.00;4.40;;;;;-147.14;100.00;58812.66;5033771;28;8799;-72
2022/08/30 11:56:53;;;;;;;;;2.80;2.80;;;;;-147.14;100.00;58812.66;5039192;28;8836;-72
2022/08/30 11:59:37;;;;;;;;;3.40;2.80;;;;;-147.14;100.00;58812.66;5050568;28;8841;-71
2022/08/30 12:02:03;;;;;;;;;2.80;2.80;;;;;-147.14;100.00;58812.66;5042946;28;8910;-73
2022/08/30 12:04:44;;;;;;;;;2.80;2.80;;;;;-147.14;100.00;58812.66;5046675;28;8831;-71
2022/08/30 12:07:11;;;;;;;;;2.80;2.80;;;;;-147.14;100.00;58812.66;5047597;28;8862;-72
2022/08/30 12:09:37;;;;;;;;;4.40;3.40;;;;;-147.14;100.00;58812.66;5035362;28;8823;-72
2022/08/30 12:12:11;;;;;;;;;3.00;3.00;;;;;-147.14;100.00;58812.66;5038065;28;9804;-71
2022/08/30 12:14:53;;;;;;;;;1.60;1.60;;;;;-147.14;100.00;58812.66;5036542;28;8819;-70
2022/08/30 12:20:47;;;;;;;;;7.00;5.80;;;;;-147.14;100.00;58812.66;5043983;28;8789;-71
2022/08/30 12:23:32;;;;;;;;;2.80;2.20;;;;;-147.14;100.00;58812.66;5043373;28;8813;-71
2022/08/30 12:26:14;;;;;;;;;4.00;3.80;;;;;-147.14;100.00;58812.66;5050915;28;8792;-71
2022/08/30 12:28:40;;;;;;;;;2.20;2.20;;;;;-147.14;100.00;58812.66;5039536;28;8902;-72
2022/08/30 12:31:08;;;;;;;;;1.75;1.75;;;;;-147.14;100.00;58812.66;5039762;28;8827;-71
2022/08/30 12:33:39;;;;;;;;;3.80;3.80;;;;;-147.14;100.00;58812.66;5040085;28;8771;-72
2022/08/30 12:36:05;;;;;;;;;3.00;3.00;;;;;-147.14;100.00;58812.66;5036043;28;8796;-71
2022/08/30 12:38:30;;;;;;;;;4.00;3.50;;;;;-147.14;100.00;58812.66;5040660;28;8883;-71
2022/08/30 12:40:59;;;;;;;;;4.25;3.00;;;;;-147.14;100.00;58812.66;5037323;28;8952;-70
2022/08/30 12:43:31;;;;;;;;;4.00;4.00;;;;;-147.14;100.00;58812.66;5046928;28;8834;-71
2022/08/30 12:46:00;;;;;;;;;3.00;3.00;;;;;-147.14;100.00;58812.66;5037905;28;8791;-71
2022/08/30 12:48:27;;;;;;;;;4.25;3.25;;;;;-147.14;100.00;58812.66;5047031;28;8803;-71
2022/08/30 12:50:55;;;;;;;;;3.75;3.75;;;;;-147.14;100.00;58812.66;5048001;28;8795;-71
2022/08/30 12:53:31;;;;;;;;;5.25;4.00;;;;;-147.14;100.00;58812.66;5037135;28;8791;-71
2022/08/30 12:56:11;;;;;;;;;3.00;3.00;;;;;-147.14;100.00;58812.66;5037342;28;8792;-71
2022/08/30 12:58:36;;;;;;;;;7.00;5.75;;;;;-147.14;100.00;58812.66;5042153;28;8780;-71
2022/08/30 13:01:25;;;;;;;;;3.50;3.50;;;;;-147.14;100.00;58812.66;5036729;28;9562;-71
2022/08/30 13:03:58;;;;;;;;;4.00;4.00;;;;;-147.14;100.00;58812.66;5049700;28;8808;-70
2022/08/30 13:06:47;;;;;;;;;4.60;3.80;;;;;-147.14;100.00;58812.66;5036926;28;8934;-71
2022/08/30 13:09:29;;;;;;;;;2.00;2.00;;;;;-147.14;100.00;58812.66;5045954;28;8809;-71
2022/08/30 13:11:55;;;;;;;;;3.50;3.50;;;;;-147.14;100.00;58812.66;5035655;28;8807;-72
2022/08/30 13:14:23;;;;;;;;;4.50;4.00;;;;;-147.14;100.00;58812.66;5037283;28;8783;-70
2022/08/30 13:16:48;;;;;;;;;1.40;1.40;;;;;-147.14;100.00;58812.66;5047566;28;8910;-71
2022/08/30 13:19:36;;;;;;;;;0.50;0.50;;;;;-147.14;100.00;58812.66;5042879;28;8795;-71
2022/08/30 13:22:02;;;;;;;;;2.60;2.60;;;;;-147.14;100.00;58812.66;5042208;28;8764;-72
2022/08/30 13:24:28;;;;;;;;;3.20;2.20;;;;;-147.14;100.00;58812.66;5040992;28;8825;-72
2022/08/30 13:26:56;;;;;;;;;4.75;3.00;;;;;-147.14;100.00;58812.66;5050066;28;8835;-71
2022/08/30 13:29:24;;;;;;;;;3.00;2.20;;;;;-147.14;100.00;58812.66;5052895;28;8862;-71
2022/08/30 13:31:50;;;;;;;;;4.00;3.80;;;;;-147.14;100.00;58812.66;5041382;28;8874;-71
2022/08/30 13:34:21;;;;;;;;;2.00;2.00;;;;;-147.14;100.00;58812.66;5053758;28;10148;-70
2022/08/30 13:36:55;;;;;;;;;5.00;5.00;;;;;-147.14;100.00;58812.66;5042462;28;8835;-71
2022/08/30 13:39:20;;;;;;;;;4.00;3.75;;;;;-147.14;100.00;58812.66;5036630;28;8971;-72
2022/08/30 13:41:46;;;;;;;;;3.75;2.25;;;;;-147.14;100.00;58812.66;5036854;28;16918;-71
2022/08/30 13:44:11;;;;;;;;;3.00;3.00;;;;;-147.14;100.00;58812.66;5046668;28;33167;-71
2022/08/30 13:46:39;;;;;;;;;3.00;3.00;;;;;-147.14;100.00;58812.66;5042082;28;9432;-71
2022/08/30 13:49:08;;;;;;;;;5.20;4.40;;;;;-147.14;100.00;58812.66;5037578;28;8835;-71
2022/08/30 13:51:33;;;;;;;;;3.00;3.00;;;;;-147.14;100.00;58812.66;5040538;28;9724;-72
2022/08/30 13:54:01;;;;;;;;;2.75;2.25;;;;;-147.14;100.00;58812.66;5036468;28;29779;-71
2022/08/30 13:56:31;;;;;;;;;3.60;3.60;;;;;-147.14;100.00;58812.66;5037927;28;9840;-71
2022/08/30 13:58:57;;;;;;;;;3.00;3.00;;;;;-147.14;100.00;58812.66;5044906;28;8839;-71
2022/08/30 14:01:23;;;;;;;;;3.20;3.20;;;;;-147.14;100.00;58812.66;5046105;28;8803;-71
2022/08/30 14:03:48;;;;;;;;;2.25;2.25;;;;;-147.14;100.00;58812.66;5035676;28;8942;-71
2022/08/30 14:06:13;;;;;;;;;1.50;1.50;;;;;-147.14;100.00;58812.66;5039247;28;8803;-70
2022/08/30 14:08:39;;;;;;;;;4.00;4.00;;;;;-147.14;100.00;58812.66;5049298;28;33455;-70
2022/08/30 14:11:04;;;;;;;;;2.25;2.25;;;;;-147.14;100.00;58812.66;5036094;28;24841;-70
2022/08/30 14:13:30;;;;;;;;;5.00;5.00;;;;;-147.14;100.00;58812.66;5040657;28;8900;-71
2022/08/30 14:15:59;;;;;;;;;3.75;3.50;;;;;-147.14;100.00;58812.66;5038565;28;8961;-70
2022/08/30 14:18:24;;;;;;;;;3.40;3.00;;;;;-147.14;100.00;58812.66;5035692;28;8799;-71
2022/08/30 14:20:50;;;;;;;;;2.50;2.00;;;;;-147.14;100.00;58812.66;5035850;28;8879;-70
2022/08/30 14:23:15;;;;;;;;;3.50;3.50;;;;;-147.14;100.00;58812.66;5037700;28;8858;-69
2022/08/30 14:25:40;;;;;;;;;3.75;1.75;;;;;-147.14;100.00;58812.66;5039401;28;8823;-69
2022/08/30 14:28:06;;;;;;;;;4.75;4.50;;;;;-147.14;100.00;58812.66;5053755;28;27588;-71
2022/08/30 14:30:31;;;;;;;;;4.00;4.00;;;;;-147.14;100.00;58812.66;5049441;28;28542;-71
2022/08/30 14:32:57;;;;;;;;;3.25;3.25;;;;;-147.14;100.00;58812.66;5041802;28;8853;-71
2022/08/30 14:35:22;;;;;;;;;3.67;3.67;;;;;-147.14;100.00;58812.66;5036034;28;34548;-71
2022/08/30 14:37:48;;;;;;;;;2.75;2.25;;;;;-147.14;100.00;58812.66;5034760;28;27357;-71
2022/08/30 14:40:14;;;;;;;;;3.50;3.50;;;;;-147.14;100.00;58812.66;5035008;28;8858;-71
2022/08/30 14:42:40;;;;;;;;;3.25;3.25;;;;;-147.14;100.00;58812.66;5034887;28;9732;-71
2022/08/30 14:45:06;;;;;;;;;3.00;3.00;;;;;-147.14;100.00;58812.66;5036003;28;9574;-71
2022/08/30 14:47:31;;;;;;;;;2.75;2.75;;;;;-147.14;100.00;58812.66;5034543;28;9689;-70
2022/08/30 14:49:59;;;;;;;;;4.00;4.00;;;;;-147.14;100.00;58812.66;5041995;28;8808;-71
2022/08/30 14:52:25;;;;;;;;;6.00;5.00;;;;;-147.14;100.00;58812.66;5035678;28;8849;-71
2022/08/30 14:54:50;;;;;;;;;3.75;3.75;;;;;-147.14;100.00;58812.66;5034879;28;8831;-71
2022/08/30 14:57:16;;;;;;;;;2.75;2.75;;;;;-147.14;100.00;58812.66;5034117;28;8839;-71
2022/08/30 14:59:41;;;;;;;;;3.00;3.00;;;;;-147.14;100.00;58812.66;5037718;28;24482;-71
2022/08/30 15:02:06;;;;;;;;;1.25;1.25;;;;;-147.14;100.00;58812.66;5035213;28;30624;-71
2022/08/30 15:04:31;;;;;;;;;4.00;4.00;;;;;-147.14;100.00;58812.66;5038991;28;19212;-70
2022/08/30 15:06:57;;;;;;;;;2.25;1.75;;;;;-147.14;100.00;58812.66;5040011;28;26289;-71
2022/08/30 15:09:23;;;;;;;;;5.00;5.00;;;;;-147.14;100.00;58812.66;5037453;28;29072;-71
2022/08/30 15:11:50;;;;;;;;;3.00;3.00;;;;;-147.14;100.00;58812.66;5035788;28;8933;-70
2022/08/30 15:14:15;;;;;;;;;4.25;4.25;;;;;-147.14;100.00;58812.66;5037731;28;8827;-71
2022/08/30 15:16:40;;;;;;;;;5.00;3.00;;;;;-147.14;100.00;58812.66;5037882;28;8929;-70
2022/08/30 15:19:08;;;;;;;;;3.00;3.00;;;;;-147.14;100.00;58812.66;5037229;28;8866;-71
2022/08/30 15:21:37;;;;;;;;;3.50;3.50;;;;;-147.14;100.00;58812.66;5034259;28;9760;-71
2022/08/30 15:24:03;;;;;;;;;4.25;4.25;;;;;-147.14;100.00;58812.66;5035920;28;9006;-70
2022/08/30 15:26:29;;;;;;;;;3.75;3.75;;;;;-147.14;100.00;58812.66;5041532;28;8833;-70
2022/08/30 15:28:55;;;;;;;;;3.67;3.67;;;;;-147.14;100.00;58812.66;5044063;28;8924;-65
2022/08/30 15:31:22;;;;;;;;;3.00;3.00;;;;;-147.14;100.00;58812.66;5040956;28;8823;-64
2022/08/30 15:33:48;;;;;;;;;2.75;2.75;;;;;-147.14;100.00;58812.66;5037713;28;8812;-65
2022/08/30 15:36:14;;;;;;;;;3.25;3.25;;;;;-147.14;100.00;58812.66;5046883;28;8847;-64
2022/08/30 15:38:41;;;;;;;;;4.33;4.00;;;;;-147.14;100.00;58812.66;5047953;28;8907;-69
2022/08/30 15:41:08;;;;;;;;;3.25;3.25;;;;;-147.14;100.00;58812.66;5039196;28;8816;-69
2022/08/30 15:43:33;;;;;;;;;7.00;4.25;;;;;-147.14;100.00;58812.66;5036518;28;8893;-71
2022/08/30 15:46:22;;;;;;;;;3.25;3.25;;;;;-147.14;100.00;58812.66;5041197;28;8813;-70
2022/08/30 15:48:50;;;;;;;;;2.75;2.75;;;;;-147.14;100.00;58812.66;5037507;28;8834;-71
2022/08/30 15:51:16;;;;;;;;;2.40;2.40;;;;;-147.14;100.00;58812.66;5037798;28;8920;-70
2022/08/30 15:53:42;;;;;;;;;3.25;3.25;;;;;-147.14;100.00;58812.66;5040129;28;8931;-71
2022/08/30 15:56:09;;;;;;;;;3.20;3.00;;;;;-147.14;100.00;58812.66;5039376;28;11584;-70
2022/08/30 15:58:35;;;;;;;;;4.50;3.75;;;;;-147.14;100.00;58812.66;5041942;28;8803;-70
2022/08/30 16:01:01;;;;;;;;;3.00;3.00;;;;;-147.14;100.00;58812.66;5040149;28;8886;-70
2022/08/30 16:03:26;;;;;;;;;2.67;2.67;;;;;-147.14;100.00;58812.66;5041855;28;8821;-72
2022/08/30 16:05:51;;;;;;;;;5.00;3.67;;;;;-147.14;100.00;58812.66;5048482;28;8815;-72
2022/08/30 16:08:17;;;;;;;;;7.00;4.33;;;;;-147.14;100.00;58812.66;5034131;28;8804;-71
2022/08/30 16:10:42;;;;;;;;;5.00;4.00;;;;;-147.14;100.00;58812.66;5032351;28;35689;-70
2022/08/30 16:13:07;;;;;;;;;3.00;3.00;;;;;-147.14;100.00;58812.66;5033310;28;8905;-71